Detall de PIREP

Printer-friendly versionPDF version

[2017/02/05 10:01:00]
Flight IATA:CT2100
Pilot Number:012
Company ICAO:CAT
Aircraft Type:F50/A
PAX:50
Aircraft Registration:PAOB
Departing Airport: LEVC
Destination Airport: LEAS
Alternate Airport:LEXJ
Online: VATSIM
Route:CENTA A33 ZMR R107 XONDA
Flight Level:F220
No Slew and time accel
No pause
Crash detect
Detect pilot in Cockpit between each 30 and 45 minutes
10:01 Zero fuel Weight: 37259 Lbs, Fuel Weight: 7255 Lbs
10:01 VATSIM:LEVC 050930Z 30040G55KT 9999 SHRA FEW018TCU BKN030 12/06 Q1013 TEMPO 4000 SHRA SCT020TCU
10:01 VATSIM:LEAS 050930Z 27024G39KT 240V300 9999 VCTS -SHRA SCT035TCU FEW040CB SCT045 09/02 Q1014 TEMPO 3000 TSRA
10:03 Parking Brakes off
10:08 Take-off
10:08 Take off Weight: 44419 Lbs
10:08 Wind: 300º @ 046 Knots Heading: 295º
10:08 POS N39º 29´ 10´´ W000º 28´ 23´´
10:08 Flaps:3 at 119 Knots
10:08 Gear Up: 127 Knots
10:08 Flaps:2 at 132 Knots
10:09 Flaps:1 at 129 Knots
10:09 Flaps:0 at 151 Knots
10:23 Wind:280º@047 Knots Heading: 294º Ground Speed: 157 Knots Altitude 18815 ft
10:26 TOC
10:26 Fuel Weight: 6528 Lb
10:26 TOD
10:26 Fuel Weight: 6524 Lb
10:26 TOC
10:26 Fuel Weight: 6517 Lb
10:38 Wind:301º@073 Knots Heading: 299º Ground Speed: 182 Knots Altitude 22017 ft
10:53 Wind:311º@121 Knots Heading: 304º Ground Speed: 135 Knots Altitude 22109 ft
11:08 Wind:311º@121 Knots Heading: 304º Ground Speed: 135 Knots Altitude 22122 ft
11:23 Wind:315º@128 Knots Heading: 305º Ground Speed: 131 Knots Altitude 22129 ft
11:38 Wind:315º@133 Knots Heading: 306º Ground Speed: 125 Knots Altitude 22152 ft
11:53 Wind:315º@133 Knots Heading: 304º Ground Speed: 126 Knots Altitude 22198 ft
12:08 Wind:315º@133 Knots Heading: 333º Ground Speed: 137 Knots Altitude 22171 ft
12:23 Wind:310º@106 Knots Heading: 322º Ground Speed: 152 Knots Altitude 22112 ft
12:35 TOD
12:35 Fuel Weight: 3167 Lb
12:38 Wind:312º@098 Knots Heading: 340º Ground Speed: 202 Knots Altitude 17992 ft
12:49 Gear Down: 200 Knots
12:49 Flaps:1 at 175 Knots
12:50 Flaps:2 at 156 Knots
12:50 Flaps:3 at 153 Knots
12:51 Flaps:4 at 139 Knots
12:51 Flaps:5 at 130 Knots
12:52 Flaps:6 at 124 Knots
12:53 Wind:317º@035 Knots Heading: 291º Ground Speed: 099 Knots Altitude 915 ft
12:54 TouchDown:Rate -396 ft/min Speed: 103 Knots
12:54 VATSIM:LEAS 051230Z 30029G50KT 9999 FEW035 SCT040TCU BKN045 10/04 Q1019 TEMPO SHRA SCT030TCU
12:54 Land
12:54 Wind:305º@034 Knots
12:54 Heading: 204º
12:54 Flight Duration: 02:46
12:54 Landing Weight: 40103 Lbs
12:54 POS N43º 33´ 46´´ W006º 01´ 54´´
12:55 Parking brakes on
12:55 Block to Block Duration: 02:52
12:55 Final Fuel: 2832 Lbls
12:55 Spent Fuel: 4422 Lbls
12:55 Flight Length:409 NM
12:55 TOD Land Length: 56 NM

Exportar CSV

Powered by Drupal - Modified by Danger4k